createdAt,value
2023-04-02T00:00:37.134Z,100197.31
2023-04-02T00:03:05.027Z,100205.34
2023-04-02T00:05:54.908Z,100203.53
2023-04-02T00:08:29.475Z,100207.72
2023-04-02T00:11:01.116Z,100211.97
2023-04-02T00:13:36.361Z,100221.50
2023-04-02T00:16:07.167Z,100233.66
2023-04-02T00:18:40.437Z,100224.78
2023-04-02T00:21:27.382Z,100238.69
2023-04-02T00:23:56.173Z,100240.47
2023-04-02T00:26:34.580Z,100252.66
2023-04-02T00:29:04.188Z,100261.44
2023-04-02T00:31:32.525Z,100261.38
2023-04-02T00:34:01.234Z,100269.31
2023-04-02T00:36:30.918Z,100269.31
2023-04-02T00:39:00.155Z,100269.22
2023-04-02T00:41:30.663Z,100272.66
2023-04-02T00:43:58.767Z,100279.56
2023-04-02T00:46:34.733Z,100284.72
2023-04-02T00:49:14.789Z,100281.03
2023-04-02T00:51:49.696Z,100295.72
2023-04-02T00:54:21.406Z,100296.50
2023-04-02T00:56:51.795Z,100298.16
2023-04-02T00:59:31.828Z,100301.59
2023-04-02T01:02:18.641Z,100305.03
2023-04-02T01:05:15.184Z,100311.00
2023-04-02T01:07:50.730Z,100317.00
2023-04-02T01:10:43.592Z,100313.44
2023-04-02T01:13:26.314Z,100317.81
2023-04-02T01:16:17.254Z,100320.38
2023-04-02T01:19:27.128Z,100324.63
2023-04-02T01:22:10.438Z,100324.53
2023-04-02T01:24:40.069Z,100328.00
2023-04-02T01:27:22.543Z,100340.19
2023-04-02T01:30:00.559Z,100347.91
2023-04-02T01:32:30.023Z,100346.09
2023-04-02T01:34:58.208Z,100354.00
2023-04-02T01:37:44.853Z,100355.84
2023-04-02T01:40:46.642Z,100368.16
2023-04-02T01:43:23.323Z,100370.66
2023-04-02T01:45:50.356Z,100369.78
2023-04-02T01:48:20.979Z,100376.69
2023-04-02T01:50:51.314Z,100379.34
2023-04-02T01:53:20.437Z,100382.78
2023-04-02T01:56:07.496Z,100386.19
2023-04-02T01:58:34.298Z,100394.78
2023-04-02T02:01:17.672Z,100401.63
2023-04-02T02:03:45.637Z,100410.31
2023-04-02T02:06:17.618Z,100408.56
2023-04-02T02:08:51.829Z,100414.69
2023-04-02T02:11:25.200Z,100427.03
2023-04-02T02:13:56.207Z,100421.84
2023-04-02T02:16:23.561Z,100420.78
2023-04-02T02:18:53.631Z,100431.97
2023-04-02T02:21:43.421Z,100434.53
2023-04-02T02:24:30.843Z,100433.63
2023-04-02T02:27:30.825Z,100437.19
2023-04-02T02:30:20.152Z,100445.00
2023-04-02T02:32:52.842Z,100447.47
2023-04-02T02:35:31.084Z,100451.84
2023-04-02T02:38:28.501Z,100459.75
2023-04-02T02:41:04.974Z,100458.91
2023-04-02T02:43:34.314Z,100467.66
2023-04-02T02:46:04.798Z,100473.78
2023-04-02T02:48:38.923Z,100475.44
2023-04-02T02:51:15.585Z,100478.00
2023-04-02T02:53:50.183Z,100484.94
2023-04-02T02:56:17.150Z,100493.63
2023-04-02T02:58:44.457Z,100491.91
2023-04-02T03:01:19.831Z,100491.75
2023-04-02T03:03:49.448Z,100503.91
2023-04-02T03:06:20.575Z,100504.63
2023-04-02T03:09:02.268Z,100501.09
2023-04-02T03:11:53.519Z,100522.13
2023-04-02T03:14:22.730Z,100520.38
2023-04-02T03:16:57.249Z,100518.59
2023-04-02T03:19:31.334Z,100534.34
2023-04-02T03:22:12.545Z,100536.13
2023-04-02T03:24:50.900Z,100541.50
2023-04-02T03:27:22.738Z,100540.72
2023-04-02T03:30:10.675Z,100548.69
2023-04-02T03:32:40.956Z,100553.09
2023-04-02T03:35:22.231Z,100564.34
2023-04-02T03:38:04.282Z,100572.09
2023-04-02T03:41:00.558Z,100573.00
2023-04-02T03:43:34.982Z,100586.19
2023-04-02T03:46:16.225Z,100583.66
2023-04-02T03:48:48.587Z,100590.72
2023-04-02T03:51:30.212Z,100600.31
2023-04-02T03:53:57.121Z,100604.50
2023-04-02T03:56:31.553Z,100609.81
2023-04-02T03:59:16.964Z,100613.25
2023-04-02T04:01:53.507Z,100614.97
2023-04-02T04:04:22.394Z,100619.44
2023-04-02T04:06:52.366Z,100632.59
2023-04-02T04:09:33.603Z,100635.25
2023-04-02T04:12:35.300Z,100632.72
2023-04-02T04:15:17.014Z,100642.28
2023-04-02T04:18:02.438Z,100649.28
2023-04-02T04:20:50.420Z,100658.00
2023-04-02T04:23:51.471Z,100656.19
2023-04-02T04:26:35.441Z,100658.91
2023-04-02T04:29:21.662Z,100658.00
2023-04-02T04:31:55.108Z,100669.28
2023-04-02T04:34:46.533Z,100670.22
2023-04-02T04:37:37.666Z,100678.03
2023-04-02T04:40:28.302Z,100674.59
2023-04-02T04:43:03.115Z,100685.13
2023-04-02T04:45:44.189Z,100688.59
2023-04-02T04:48:29.906Z,100687.75
2023-04-02T04:51:04.962Z,100702.53
2023-04-02T04:53:32.204Z,100705.22
2023-04-02T04:56:18.064Z,100703.50
2023-04-02T04:58:52.577Z,100728.06
2023-04-02T05:01:27.442Z,100717.72
2023-04-02T05:04:02.506Z,100722.13
2023-04-02T05:06:39.244Z,100739.66
2023-04-02T05:09:15.599Z,100727.53
2023-04-02T05:11:47.154Z,100731.97
2023-04-02T05:14:25.961Z,100744.16
2023-04-02T05:17:10.332Z,100750.34
2023-04-02T05:19:44.239Z,100752.25
2023-04-02T05:22:23.237Z,100757.56
2023-04-02T05:25:14.912Z,100765.53
2023-04-02T05:27:49.287Z,100769.16
2023-04-02T05:30:24.574Z,100767.50
2023-04-02T05:33:05.053Z,100776.31
2023-04-02T05:35:36.079Z,100783.31
2023-04-02T05:38:04.709Z,100779.09
2023-04-02T05:40:38.751Z,100785.25
2023-04-02T05:43:10.484Z,100796.69
2023-04-02T05:45:51.564Z,100805.44
2023-04-02T05:48:28.745Z,100793.94
2023-04-02T05:50:58.890Z,100817.34
2023-04-02T05:53:34.729Z,100819.97
2023-04-02T05:56:14.450Z,100821.00
2023-04-02T05:58:47.127Z,100824.63
2023-04-02T06:02:03.333Z,100839.53
2023-04-02T06:04:36.999Z,100835.09
2023-04-02T06:07:07.150Z,100845.69
2023-04-02T06:09:56.190Z,100838.78
2023-04-02T06:12:43.616Z,100848.53
2023-04-02T06:15:19.561Z,100862.63
2023-04-02T06:17:51.919Z,100872.31
2023-04-02T06:20:20.596Z,100860.03
2023-04-02T06:22:58.778Z,100873.22
2023-04-02T06:25:32.365Z,100868.03
2023-04-02T06:28:15.090Z,100888.13
2023-04-02T06:30:52.541Z,100883.91
2023-04-02T06:33:20.037Z,100888.53
2023-04-02T06:35:51.253Z,100893.06
2023-04-02T06:38:29.398Z,100900.34
2023-04-02T06:40:59.983Z,100904.88
2023-04-02T06:44:13.758Z,100913.75
2023-04-02T06:47:33.125Z,100915.75
2023-04-02T06:50:05.814Z,100922.91
2023-04-02T06:52:48.786Z,100934.41
2023-04-02T06:55:29.925Z,100928.44
2023-04-02T06:57:56.877Z,100940.06
2023-04-02T07:00:36.008Z,100939.44
2023-04-02T07:03:08.116Z,100939.59
2023-04-02T07:05:35.174Z,100944.16
2023-04-02T07:08:01.980Z,100961.78
2023-04-02T07:10:28.497Z,100954.88
2023-04-02T07:12:55.005Z,100962.88
2023-04-02T07:15:25.314Z,100962.13
2023-04-02T07:17:54.784Z,100972.59
2023-04-02T07:20:32.859Z,100979.63
2023-04-02T07:23:04.597Z,100980.63
2023-04-02T07:25:31.079Z,100979.78
2023-04-02T07:27:57.566Z,100982.56
2023-04-02T07:30:24.056Z,100986.31
2023-04-02T07:32:50.676Z,100999.63
2023-04-02T07:35:17.471Z,100999.72
2023-04-02T07:37:44.010Z,101011.19
2023-04-02T07:40:18.322Z,101005.88
2023-04-02T07:42:45.252Z,101020.59
2023-04-02T07:45:12.261Z,101013.56
2023-04-02T07:47:39.857Z,101018.78
2023-04-02T07:50:08.219Z,101025.91
2023-04-02T07:52:47.201Z,101026.22
2023-04-02T07:55:18.764Z,101034.25
2023-04-02T07:57:51.390Z,101036.69
2023-04-02T08:00:19.115Z,101039.78
2023-04-02T08:02:46.929Z,101046.59
2023-04-02T08:05:15.021Z,101055.78
2023-04-02T08:07:42.052Z,101065.84
2023-04-02T08:10:11.308Z,101064.78
2023-04-02T08:12:38.440Z,101063.41
2023-04-02T08:15:07.323Z,101078.78
2023-04-02T08:17:35.250Z,101074.97
2023-04-02T08:20:01.846Z,101079.81
2023-04-02T08:22:29.234Z,101089.06
2023-04-02T08:24:56.468Z,101094.06
2023-04-02T08:27:25.173Z,101102.75
2023-04-02T08:29:52.095Z,101106.22
2023-04-02T08:32:18.761Z,101112.44
2023-04-02T08:34:45.503Z,101112.44
2023-04-02T08:37:12.670Z,101113.19
2023-04-02T08:39:39.782Z,101119.34
2023-04-02T08:42:26.612Z,101132.50
2023-04-02T08:45:23.608Z,101137.78
2023-04-02T08:47:55.949Z,101130.88
2023-04-02T08:50:37.451Z,101146.63
2023-04-02T08:53:11.361Z,101143.22
2023-04-02T08:55:52.606Z,101136.94
2023-04-02T08:58:43.677Z,101147.38
2023-04-02T09:01:34.515Z,101157.91
2023-04-02T09:04:03.368Z,101159.72
2023-04-02T09:06:30.130Z,101164.06
2023-04-02T09:08:58.455Z,101172.00
2023-04-02T09:11:34.343Z,101169.56
2023-04-02T09:14:06.433Z,101183.13
2023-04-02T09:16:43.438Z,101187.88
2023-04-02T09:19:20.669Z,101176.91
2023-04-02T09:22:02.505Z,101192.91
2023-04-02T09:24:29.378Z,101192.25
2023-04-02T09:26:56.119Z,101186.44
2023-04-02T09:29:41.451Z,101194.22
2023-04-02T09:32:46.625Z,101196.19
2023-04-02T09:35:26.301Z,101202.78
2023-04-02T09:38:35.215Z,101207.38
2023-04-02T09:41:04.218Z,101206.22
2023-04-02T09:43:33.539Z,101207.34
2023-04-02T09:46:23.260Z,101219.31
2023-04-02T09:49:01.339Z,101220.38
2023-04-02T09:51:36.635Z,101230.19
2023-04-02T09:54:03.372Z,101231.31
2023-04-02T09:56:37.733Z,101236.97
2023-04-02T09:59:15.220Z,101244.09
2023-04-02T10:01:45.562Z,101243.69
2023-04-02T10:04:44.447Z,101248.13
2023-04-02T10:07:45.190Z,101253.63
2023-04-02T10:10:30.689Z,101265.13
2023-04-02T10:13:05.092Z,101264.41
2023-04-02T10:15:43.416Z,101268.94
2023-04-02T10:18:20.927Z,101269.97
2023-04-02T10:20:51.338Z,101270.34
2023-04-02T10:23:20.190Z,101272.56
2023-04-02T10:25:57.807Z,101277.88
2023-04-02T10:28:32.843Z,101269.41
2023-04-02T10:31:15.365Z,101278.78
2023-04-02T10:33:46.240Z,101285.59
2023-04-02T10:36:27.560Z,101284.16
2023-04-02T10:38:56.907Z,101289.88
2023-04-02T10:41:48.831Z,101280.06
2023-04-02T10:44:27.265Z,101298.69
2023-04-02T10:46:59.731Z,101307.09
2023-04-02T10:49:38.541Z,101301.91
2023-04-02T10:52:10.006Z,101291.16
2023-04-02T10:55:30.224Z,101289.94
2023-04-02T10:58:06.395Z,101300.69
2023-04-02T11:00:37.846Z,101302.72
2023-04-02T11:03:12.533Z,101307.53
2023-04-02T11:05:51.368Z,101313.63
2023-04-02T11:08:20.919Z,101317.88
2023-04-02T11:10:53.662Z,101321.56
2023-04-02T11:13:31.201Z,101326.94
2023-04-02T11:16:00.319Z,101327.84
2023-04-02T11:18:37.175Z,101326.13
2023-04-02T11:21:54.983Z,101325.34
2023-04-02T11:24:31.683Z,101333.47
2023-04-02T11:27:10.511Z,101331.19
2023-04-02T11:29:52.290Z,101333.88
2023-04-02T11:32:21.890Z,101326.25
2023-04-02T11:34:56.447Z,101342.69
2023-04-02T11:37:35.618Z,101342.44
2023-04-02T11:40:14.157Z,101344.63
2023-04-02T11:42:44.669Z,101345.34
2023-04-02T11:45:20.896Z,101343.16
2023-04-02T11:48:08.359Z,101352.00
2023-04-02T11:50:46.201Z,101352.56
2023-04-02T11:53:13.472Z,101353.78
2023-04-02T11:55:45.538Z,101365.00
2023-04-02T11:58:46.169Z,101359.25
2023-04-02T12:01:40.079Z,101363.56
2023-04-02T12:04:15.593Z,101361.84
2023-04-02T12:07:19.661Z,101355.81
2023-04-02T12:09:55.709Z,101359.53
2023-04-02T12:12:39.481Z,101360.16
2023-04-02T12:15:25.515Z,101357.56
2023-04-02T12:17:52.174Z,101356.53
2023-04-02T12:20:22.828Z,101363.75
2023-04-02T12:22:55.083Z,101380.31
2023-04-02T12:25:31.444Z,101372.94
2023-04-02T12:28:10.359Z,101385.59
2023-04-02T12:30:38.576Z,101379.72
2023-04-02T12:33:22.085Z,101382.13
2023-04-02T12:35:53.379Z,101382.31
2023-04-02T12:38:21.483Z,101383.03
2023-04-02T12:41:38.498Z,101386.63
2023-04-02T12:44:15.412Z,101375.91
2023-04-02T12:46:43.749Z,101376.38
2023-04-02T12:49:33.610Z,101379.25
2023-04-02T12:52:06.175Z,101378.41
2023-04-02T12:54:39.329Z,101383.03
2023-04-02T12:57:28.939Z,101375.19
2023-04-02T13:00:01.469Z,101382.63
2023-04-02T13:02:33.272Z,101377.34
2023-04-02T13:05:01.701Z,101383.13
2023-04-02T13:07:32.388Z,101390.69
2023-04-02T13:10:04.280Z,101386.88
2023-04-02T13:12:34.834Z,101388.34
2023-04-02T13:15:04.303Z,101395.03
2023-04-02T13:17:45.562Z,101398.09
2023-04-02T13:20:38.093Z,101397.66
2023-04-02T13:23:36.665Z,101390.31
2023-04-02T13:26:22.760Z,101397.75
2023-04-02T13:29:17.891Z,101393.72
2023-04-02T13:31:45.491Z,101393.75
2023-04-02T13:34:12.147Z,101400.34
2023-04-02T13:36:41.273Z,101407.09
2023-04-02T13:39:09.221Z,101406.50
2023-04-02T13:41:51.841Z,101409.28
2023-04-02T13:44:35.631Z,101406.75
2023-04-02T13:47:02.296Z,101411.88
2023-04-02T13:49:29.222Z,101404.56
2023-04-02T13:51:59.268Z,101418.59
2023-04-02T13:54:37.369Z,101414.09
2023-04-02T13:57:04.337Z,101411.81
2023-04-02T13:59:30.941Z,101412.09
2023-04-02T14:02:03.640Z,101413.22
2023-04-02T14:04:37.644Z,101420.06
2023-04-02T14:07:17.308Z,101437.00
2023-04-02T14:09:54.966Z,101432.38
2023-04-02T14:12:41.350Z,101437.81
2023-04-02T14:15:27.952Z,101453.09
2023-04-02T14:18:32.922Z,101445.53
2023-04-02T14:21:12.128Z,101441.78
2023-04-02T14:23:55.473Z,101445.91
2023-04-02T14:26:51.605Z,101440.97
2023-04-02T14:29:28.779Z,101437.84
2023-04-02T14:32:06.599Z,101439.66
2023-04-02T14:34:46.510Z,101448.13
2023-04-02T14:37:23.190Z,101444.41
2023-04-02T14:39:56.167Z,101448.31
2023-04-02T14:42:30.642Z,101454.69
2023-04-02T14:45:05.110Z,101450.28
2023-04-02T14:47:39.267Z,101453.94
2023-04-02T14:50:12.109Z,101462.03
2023-04-02T14:52:42.230Z,101475.16
2023-04-02T14:55:18.985Z,101455.44
2023-04-02T14:57:53.575Z,101459.63
2023-04-02T15:00:20.938Z,101468.19
2023-04-02T15:02:54.527Z,101467.94
2023-04-02T15:05:28.180Z,101473.75
2023-04-02T15:08:03.276Z,101466.16
2023-04-02T15:10:42.625Z,101479.75
2023-04-02T15:13:20.091Z,101474.13
2023-04-02T15:15:54.286Z,101469.50
2023-04-02T15:18:22.504Z,101469.44
2023-04-02T15:20:59.489Z,101475.88
2023-04-02T15:23:54.988Z,101486.34
2023-04-02T15:26:37.216Z,101481.16
2023-04-02T15:29:15.890Z,101488.91
2023-04-02T15:31:51.317Z,101503.78
2023-04-02T15:34:34.798Z,101504.47
2023-04-02T15:37:19.465Z,101503.50
2023-04-02T15:40:03.364Z,101510.75
2023-04-02T15:42:36.638Z,101509.97
2023-04-02T15:45:12.475Z,101521.09
2023-04-02T15:47:44.717Z,101521.97
2023-04-02T15:50:29.022Z,101515.94
2023-04-02T15:53:36.306Z,101526.56
2023-04-02T15:56:15.715Z,101521.06
2023-04-02T15:59:02.308Z,101527.16
2023-04-02T16:02:01.081Z,101521.75
2023-04-02T16:04:52.431Z,101526.53
2023-04-02T16:07:29.229Z,101537.03
2023-04-02T16:10:30.324Z,101539.03
2023-04-02T16:13:31.579Z,101533.66
2023-04-02T16:16:05.904Z,101535.53
2023-04-02T16:18:40.442Z,101548.34
2023-04-02T16:21:08.959Z,101547.00
2023-04-02T16:23:37.836Z,101550.00
2023-04-02T16:26:16.491Z,101562.72
2023-04-02T16:28:51.185Z,101551.91
2023-04-02T16:31:28.612Z,101574.47
2023-04-02T16:33:56.695Z,101569.66
2023-04-02T16:36:32.600Z,101573.47
2023-04-02T16:39:08.647Z,101591.56
2023-04-02T16:41:51.540Z,101581.31
2023-04-02T16:44:52.328Z,101586.22
2023-04-02T16:47:50.076Z,101597.38
2023-04-02T16:50:48.880Z,101600.41
2023-04-02T16:53:29.866Z,101597.41
2023-04-02T16:56:18.289Z,101607.81
2023-04-02T16:58:54.080Z,101612.09
2023-04-02T17:01:42.497Z,101614.16
2023-04-02T17:04:32.985Z,101622.34
2023-04-02T17:07:23.890Z,101625.59
2023-04-02T17:09:53.833Z,101633.44
2023-04-02T17:12:39.802Z,101637.69
2023-04-02T17:15:28.799Z,101641.72
2023-04-02T17:18:01.835Z,101640.53
2023-04-02T17:20:28.834Z,101641.22
2023-04-02T17:22:56.239Z,101651.47
2023-04-02T17:25:31.714Z,101645.84
2023-04-02T17:27:58.254Z,101650.84
2023-04-02T17:30:44.776Z,101658.66
2023-04-02T17:33:13.172Z,101659.34
2023-04-02T17:36:07.473Z,101667.91
2023-04-02T17:38:51.295Z,101670.06
2023-04-02T17:41:52.428Z,101677.25
2023-04-02T17:44:37.018Z,101680.09
2023-04-02T17:47:09.818Z,101687.28
2023-04-02T17:50:21.363Z,101690.84
2023-04-02T17:53:18.953Z,101690.09
2023-04-02T17:56:01.029Z,101698.25
2023-04-02T17:58:55.778Z,101701.16
2023-04-02T18:01:33.705Z,101700.13
2023-04-02T18:04:09.115Z,101700.13
2023-04-02T18:06:42.910Z,101704.63
2023-04-02T18:09:39.651Z,101712.44
2023-04-02T18:12:27.583Z,101723.66
2023-04-02T18:14:57.037Z,101726.75
2023-04-02T18:17:38.624Z,101733.16
2023-04-02T18:20:25.686Z,101739.88
2023-04-02T18:23:20.288Z,101747.47
2023-04-02T18:26:04.785Z,101752.66
2023-04-02T18:29:23.190Z,101751.47
2023-04-02T18:32:35.700Z,101757.09
2023-04-02T18:35:14.784Z,101759.28
2023-04-02T18:37:57.853Z,101764.91
2023-04-02T18:40:33.227Z,101771.38
2023-04-02T18:43:15.010Z,101772.47
2023-04-02T18:45:53.484Z,101779.97
2023-04-02T18:48:51.162Z,101795.28
2023-04-02T18:51:22.066Z,101795.22
2023-04-02T18:54:06.596Z,101800.47
2023-04-02T18:56:33.624Z,101815.00
2023-04-02T18:59:12.776Z,101807.63
2023-04-02T19:04:25.441Z,101813.84
2023-04-02T19:07:16.376Z,101828.38
2023-04-02T19:09:47.951Z,101827.16
2023-04-02T19:12:19.929Z,101831.16
2023-04-02T19:14:52.508Z,101831.75
2023-04-02T19:17:37.058Z,101837.47
2023-04-02T19:20:31.398Z,101836.19
2023-04-02T19:23:19.758Z,101839.28
2023-04-02T19:26:02.529Z,101842.47
2023-04-02T19:28:52.879Z,101843.03
2023-04-02T19:31:26.935Z,101860.19
2023-04-02T19:34:06.074Z,101861.59
2023-04-02T19:36:41.647Z,101869.91
2023-04-02T19:39:17.163Z,101869.63
2023-04-02T19:41:49.877Z,101872.00
2023-04-02T19:44:18.303Z,101873.63
2023-04-02T19:46:46.472Z,101880.34
2023-04-02T19:49:40.810Z,101874.81
2023-04-02T19:52:07.296Z,101877.28
2023-04-02T19:54:34.614Z,101878.00
2023-04-02T19:57:03.927Z,101878.66
2023-04-02T19:59:31.682Z,101887.06
2023-04-02T20:02:05.869Z,101885.88
2023-04-02T20:04:32.504Z,101896.09
2023-04-02T20:06:59.069Z,101885.34
2023-04-02T20:09:25.822Z,101891.13
2023-04-02T20:11:52.289Z,101892.53
2023-04-02T20:14:21.304Z,101896.59
2023-04-02T20:16:47.894Z,101900.69
2023-04-02T20:19:14.437Z,101901.38
2023-04-02T20:21:40.963Z,101905.53
2023-04-02T20:24:08.369Z,101907.16
2023-04-02T20:26:35.882Z,101912.22
2023-04-02T20:29:04.808Z,101911.13
2023-04-02T20:31:31.476Z,101917.88
2023-04-02T20:33:59.424Z,101920.34
2023-04-02T20:36:26.654Z,101918.31
2023-04-02T20:38:53.212Z,101919.94
2023-04-02T20:41:20.183Z,101930.22
2023-04-02T20:43:46.774Z,101928.16
2023-04-02T20:46:15.688Z,101925.31
2023-04-02T20:48:42.895Z,101932.19
2023-04-02T20:51:12.973Z,101937.13
2023-04-02T20:53:39.674Z,101942.19
2023-04-02T20:56:15.388Z,101944.50
2023-04-02T20:58:43.129Z,101944.41
2023-04-02T21:01:11.462Z,101958.28
2023-04-02T21:03:39.796Z,101964.13
2023-04-02T21:06:13.011Z,101968.34
2023-04-02T21:08:39.675Z,101966.34
2023-04-02T21:11:08.033Z,101976.63
2023-04-02T21:13:37.905Z,101970.31
2023-04-02T21:16:13.361Z,101974.44
2023-04-02T21:18:39.932Z,101981.44
2023-04-02T21:21:07.238Z,101979.66
2023-04-02T21:23:34.416Z,101974.03
2023-04-02T21:26:06.109Z,101980.06
2023-04-02T21:28:38.771Z,101979.06
2023-04-02T21:31:10.630Z,101992.66
2023-04-02T21:33:41.374Z,101992.31
2023-04-02T21:36:13.238Z,101992.97
2023-04-02T21:38:49.669Z,101994.25
2023-04-02T21:41:17.555Z,101997.59
2023-04-02T21:43:48.255Z,101994.75
2023-04-02T21:46:18.002Z,102009.13
2023-04-02T21:48:45.366Z,102004.59
2023-04-02T21:51:16.987Z,102013.94
2023-04-02T21:53:44.419Z,102012.84
2023-04-02T21:56:16.789Z,102017.88
2023-04-02T21:58:44.556Z,102015.84
2023-04-02T22:01:23.893Z,102022.47
2023-04-02T22:03:55.413Z,102027.47
2023-04-02T22:06:25.216Z,102022.03
2023-04-02T22:08:54.496Z,102030.59
2023-04-02T22:11:24.982Z,102024.22
2023-04-02T22:13:52.312Z,102031.88
2023-04-02T22:16:21.467Z,102029.84
2023-04-02T22:18:50.452Z,102030.47
2023-04-02T22:21:17.689Z,102032.84
2023-04-02T22:23:44.741Z,102034.44
2023-04-02T22:26:12.837Z,102036.84
2023-04-02T22:28:39.817Z,102042.66
2023-04-02T22:31:14.092Z,102045.84
2023-04-02T22:33:41.471Z,102037.91
2023-04-02T22:36:08.976Z,102043.75
2023-04-02T22:38:36.379Z,102052.25
2023-04-02T22:41:07.910Z,102045.00
2023-04-02T22:43:35.923Z,102045.72
2023-04-02T22:46:04.347Z,102058.63
2023-04-02T22:48:31.010Z,102058.44
2023-04-02T22:50:57.760Z,102062.63
2023-04-02T22:53:24.845Z,102060.50
2023-04-02T22:55:52.300Z,102063.69
2023-04-02T22:58:19.726Z,102062.78
2023-04-02T23:00:46.830Z,102068.69
2023-04-02T23:03:13.438Z,102068.59
2023-04-02T23:05:42.355Z,102072.56
2023-04-02T23:08:09.139Z,102067.00
2023-04-02T23:10:36.045Z,102071.09
2023-04-02T23:13:05.510Z,102076.13
2023-04-02T23:15:32.264Z,102073.31
2023-04-02T23:17:58.791Z,102078.28
2023-04-02T23:20:25.457Z,102071.94
2023-04-02T23:22:53.043Z,102068.19
2023-04-02T23:25:21.128Z,102068.09
2023-04-02T23:27:47.753Z,102065.28
2023-04-02T23:30:15.502Z,102073.78
2023-04-02T23:32:42.344Z,102072.66
2023-04-02T23:35:09.210Z,102080.13
2023-04-02T23:37:36.703Z,102077.28
2023-04-02T23:40:03.803Z,102080.59
2023-04-02T23:42:30.406Z,102071.75
2023-04-02T23:44:56.855Z,102070.63
2023-04-02T23:47:23.405Z,102074.72
2023-04-02T23:49:49.903Z,102078.00
2023-04-02T23:52:16.473Z,102071.75
2023-04-02T23:54:43.289Z,102068.94
2023-04-02T23:57:10.171Z,102074.72
2023-04-02T23:59:38.232Z,102076.28
